sensor_id;sensor_type;location;lat;lon;timestamp;temperature;humidity
41058;DHT22;66768;48.884;2.258;2023-05-10T00:00:32;14.00;99.90
41058;DHT22;66768;48.884;2.258;2023-05-10T00:02:59;14.00;99.90
41058;DHT22;66768;48.884;2.258;2023-05-10T00:05:26;14.00;99.90
41058;DHT22;66768;48.884;2.258;2023-05-10T00:07:54;13.90;99.90
41058;DHT22;66768;48.884;2.258;2023-05-10T00:10:21;13.80;99.90
41058;DHT22;66768;48.884;2.258;2023-05-10T00:12:48;13.90;99.90
41058;DHT22;66768;48.884;2.258;2023-05-10T00:15:15;13.80;99.90
41058;DHT22;66768;48.884;2.258;2023-05-10T00:17:42;13.70;99.90
41058;DHT22;66768;48.884;2.258;2023-05-10T00:20:10;13.70;99.90
41058;DHT22;66768;48.884;2.258;2023-05-10T00:22:37;13.70;99.90
41058;DHT22;66768;48.884;2.258;2023-05-10T00:25:07;13.70;99.90
41058;DHT22;66768;48.884;2.258;2023-05-10T00:27:34;13.60;99.90
41058;DHT22;66768;48.884;2.258;2023-05-10T00:30:01;13.60;99.90
41058;DHT22;66768;48.884;2.258;2023-05-10T00:32:28;13.50;99.90
41058;DHT22;66768;48.884;2.258;2023-05-10T00:34:55;13.40;99.90
41058;DHT22;66768;48.884;2.258;2023-05-10T00:37:22;13.40;99.90
41058;DHT22;66768;48.884;2.258;2023-05-10T00:39:49;13.30;99.90
41058;DHT22;66768;48.884;2.258;2023-05-10T00:42:17;13.30;99.90
41058;DHT22;66768;48.884;2.258;2023-05-10T00:44:43;13.40;99.90
41058;DHT22;66768;48.884;2.258;2023-05-10T00:47:12;13.30;99.90
41058;DHT22;66768;48.884;2.258;2023-05-10T00:49:39;13.30;99.90
41058;DHT22;66768;48.884;2.258;2023-05-10T00:52:07;13.20;99.90
41058;DHT22;66768;48.884;2.258;2023-05-10T00:54:34;13.30;99.90
41058;DHT22;66768;48.884;2.258;2023-05-10T00:57:02;13.20;99.90
41058;DHT22;66768;48.884;2.258;2023-05-10T00:59:30;13.30;99.90
41058;DHT22;66768;48.884;2.258;2023-05-10T01:01:58;13.20;99.90
41058;DHT22;66768;48.884;2.258;2023-05-10T01:04:25;13.20;99.90
41058;DHT22;66768;48.884;2.258;2023-05-10T01:06:52;13.30;99.90
41058;DHT22;66768;48.884;2.258;2023-05-10T01:09:19;13.20;99.90
41058;DHT22;66768;48.884;2.258;2023-05-10T01:11:47;13.30;99.90
41058;DHT22;66768;48.884;2.258;2023-05-10T01:14:15;13.20;99.90
41058;DHT22;66768;48.884;2.258;2023-05-10T01:16:47;13.20;99.90
41058;DHT22;66768;48.884;2.258;2023-05-10T01:19:19;13.30;99.90
41058;DHT22;66768;48.884;2.258;2023-05-10T01:21:50;13.30;99.90
41058;DHT22;66768;48.884;2.258;2023-05-10T01:33:27;13.30;99.90
41058;DHT22;66768;48.884;2.258;2023-05-10T01:36:05;13.30;99.90
41058;DHT22;66768;48.884;2.258;2023-05-10T01:38:40;13.20;99.90
41058;DHT22;66768;48.884;2.258;2023-05-10T01:41:13;13.30;99.90
41058;DHT22;66768;48.884;2.258;2023-05-10T01:43:48;13.20;99.90
41058;DHT22;66768;48.884;2.258;2023-05-10T01:46:22;13.10;99.90
41058;DHT22;66768;48.884;2.258;2023-05-10T01:48:55;13.20;99.90
41058;DHT22;66768;48.884;2.258;2023-05-10T01:51:25;13.10;99.90
41058;DHT22;66768;48.884;2.258;2023-05-10T01:53:58;13.10;99.90
41058;DHT22;66768;48.884;2.258;2023-05-10T01:56:26;13.20;99.90
41058;DHT22;66768;48.884;2.258;2023-05-10T01:58:55;13.10;99.90
41058;DHT22;66768;48.884;2.258;2023-05-10T02:01:24;13.20;99.90
41058;DHT22;66768;48.884;2.258;2023-05-10T02:03:53;13.20;99.90
41058;DHT22;66768;48.884;2.258;2023-05-10T02:06:22;13.10;99.90
41058;DHT22;66768;48.884;2.258;2023-05-10T02:08:51;13.10;99.90
41058;DHT22;66768;48.884;2.258;2023-05-10T02:11:20;13.00;99.90
41058;DHT22;66768;48.884;2.258;2023-05-10T02:13:48;13.10;99.90
41058;DHT22;66768;48.884;2.258;2023-05-10T02:16:16;13.10;99.90
41058;DHT22;66768;48.884;2.258;2023-05-10T02:18:44;13.00;99.90
41058;DHT22;66768;48.884;2.258;2023-05-10T02:21:14;13.10;99.90
41058;DHT22;66768;48.884;2.258;2023-05-10T02:23:43;13.10;99.90
41058;DHT22;66768;48.884;2.258;2023-05-10T02:26:11;13.10;99.90
41058;DHT22;66768;48.884;2.258;2023-05-10T02:28:40;13.10;99.90
41058;DHT22;66768;48.884;2.258;2023-05-10T02:31:09;13.10;99.90
41058;DHT22;66768;48.884;2.258;2023-05-10T02:33:37;13.20;99.90
41058;DHT22;66768;48.884;2.258;2023-05-10T02:36:06;13.20;99.90
41058;DHT22;66768;48.884;2.258;2023-05-10T02:38:35;13.20;99.90
41058;DHT22;66768;48.884;2.258;2023-05-10T02:41:04;13.10;99.90
41058;DHT22;66768;48.884;2.258;2023-05-10T02:43:32;13.20;99.90
41058;DHT22;66768;48.884;2.258;2023-05-10T02:45:59;13.20;99.90
41058;DHT22;66768;48.884;2.258;2023-05-10T02:48:27;13.10;99.90
41058;DHT22;66768;48.884;2.258;2023-05-10T02:50:56;13.20;99.90
41058;DHT22;66768;48.884;2.258;2023-05-10T02:53:31;13.20;99.90
41058;DHT22;66768;48.884;2.258;2023-05-10T02:56:05;13.20;99.90
41058;DHT22;66768;48.884;2.258;2023-05-10T02:58:32;13.10;99.90
41058;DHT22;66768;48.884;2.258;2023-05-10T03:00:59;13.20;99.90
41058;DHT22;66768;48.884;2.258;2023-05-10T03:03:26;13.20;99.90
41058;DHT22;66768;48.884;2.258;2023-05-10T03:05:53;13.20;99.90
41058;DHT22;66768;48.884;2.258;2023-05-10T03:08:21;13.20;99.90
41058;DHT22;66768;48.884;2.258;2023-05-10T03:10:55;13.30;99.90
41058;DHT22;66768;48.884;2.258;2023-05-10T03:13:33;13.30;99.90
41058;DHT22;66768;48.884;2.258;2023-05-10T03:16:07;13.30;99.90
41058;DHT22;66768;48.884;2.258;2023-05-10T03:18:42;13.30;99.90
41058;DHT22;66768;48.884;2.258;2023-05-10T03:21:11;13.30;99.90
41058;DHT22;66768;48.884;2.258;2023-05-10T03:23:43;13.30;99.90
41058;DHT22;66768;48.884;2.258;2023-05-10T03:26:15;13.30;99.90
41058;DHT22;66768;48.884;2.258;2023-05-10T03:28:45;13.30;99.90
41058;DHT22;66768;48.884;2.258;2023-05-10T03:31:14;13.30;99.90
41058;DHT22;66768;48.884;2.258;2023-05-10T03:33:46;13.30;99.90
41058;DHT22;66768;48.884;2.258;2023-05-10T03:36:13;13.30;99.90
41058;DHT22;66768;48.884;2.258;2023-05-10T03:38:40;13.30;99.90
41058;DHT22;66768;48.884;2.258;2023-05-10T03:41:07;13.30;99.90
41058;DHT22;66768;48.884;2.258;2023-05-10T03:43:34;13.30;99.90
41058;DHT22;66768;48.884;2.258;2023-05-10T03:46:03;13.30;99.90
41058;DHT22;66768;48.884;2.258;2023-05-10T03:50:58;13.30;99.90
41058;DHT22;66768;48.884;2.258;2023-05-10T03:53:25;13.30;99.90
41058;DHT22;66768;48.884;2.258;2023-05-10T03:55:52;13.30;99.90
41058;DHT22;66768;48.884;2.258;2023-05-10T03:58:19;13.30;99.90
41058;DHT22;66768;48.884;2.258;2023-05-10T04:00:47;13.30;99.90
41058;DHT22;66768;48.884;2.258;2023-05-10T04:03:15;13.30;99.90
41058;DHT22;66768;48.884;2.258;2023-05-10T04:05:42;13.30;99.90
41058;DHT22;66768;48.884;2.258;2023-05-10T04:08:09;13.30;99.90
41058;DHT22;66768;48.884;2.258;2023-05-10T04:10:36;13.30;99.90
41058;DHT22;66768;48.884;2.258;2023-05-10T04:13:03;13.30;99.90
41058;DHT22;66768;48.884;2.258;2023-05-10T04:15:29;13.20;99.90
41058;DHT22;66768;48.884;2.258;2023-05-10T04:17:56;13.30;99.90
41058;DHT22;66768;48.884;2.258;2023-05-10T04:20:24;13.30;99.90
41058;DHT22;66768;48.884;2.258;2023-05-10T04:22:51;13.20;99.90
41058;DHT22;66768;48.884;2.258;2023-05-10T04:25:19;13.20;99.90
41058;DHT22;66768;48.884;2.258;2023-05-10T04:27:46;13.20;99.90
41058;DHT22;66768;48.884;2.258;2023-05-10T04:30:13;13.20;99.90
41058;DHT22;66768;48.884;2.258;2023-05-10T04:32:39;13.20;99.90
41058;DHT22;66768;48.884;2.258;2023-05-10T04:35:07;13.30;99.90
41058;DHT22;66768;48.884;2.258;2023-05-10T04:37:36;13.30;99.90
41058;DHT22;66768;48.884;2.258;2023-05-10T04:40:04;13.30;99.90
41058;DHT22;66768;48.884;2.258;2023-05-10T04:42:31;13.30;99.90
41058;DHT22;66768;48.884;2.258;2023-05-10T04:44:58;13.30;99.90
41058;DHT22;66768;48.884;2.258;2023-05-10T04:47:25;13.30;99.90
41058;DHT22;66768;48.884;2.258;2023-05-10T04:49:52;13.30;99.90
41058;DHT22;66768;48.884;2.258;2023-05-10T04:52:19;13.30;99.90
41058;DHT22;66768;48.884;2.258;2023-05-10T04:54:47;13.40;99.90
41058;DHT22;66768;48.884;2.258;2023-05-10T04:57:14;13.30;99.90
41058;DHT22;66768;48.884;2.258;2023-05-10T04:59:41;13.30;99.90
41058;DHT22;66768;48.884;2.258;2023-05-10T05:02:08;13.30;99.90
41058;DHT22;66768;48.884;2.258;2023-05-10T05:04:35;13.30;99.90
41058;DHT22;66768;48.884;2.258;2023-05-10T05:07:02;13.30;99.90
41058;DHT22;66768;48.884;2.258;2023-05-10T05:09:28;13.30;99.90
41058;DHT22;66768;48.884;2.258;2023-05-10T05:11:58;13.30;99.90
41058;DHT22;66768;48.884;2.258;2023-05-10T05:14:25;13.30;99.90
41058;DHT22;66768;48.884;2.258;2023-05-10T05:16:52;13.30;99.90
41058;DHT22;66768;48.884;2.258;2023-05-10T05:19:19;13.30;99.90
41058;DHT22;66768;48.884;2.258;2023-05-10T05:21:46;13.30;99.90
41058;DHT22;66768;48.884;2.258;2023-05-10T05:24:13;13.30;99.90
41058;DHT22;66768;48.884;2.258;2023-05-10T05:26:39;13.40;99.90
41058;DHT22;66768;48.884;2.258;2023-05-10T05:29:08;13.30;99.90
41058;DHT22;66768;48.884;2.258;2023-05-10T05:31:35;13.40;99.90
41058;DHT22;66768;48.884;2.258;2023-05-10T05:34:02;13.40;99.90
41058;DHT22;66768;48.884;2.258;2023-05-10T05:36:28;13.40;99.90
41058;DHT22;66768;48.884;2.258;2023-05-10T05:38:56;13.40;99.90
41058;DHT22;66768;48.884;2.258;2023-05-10T05:41:23;13.40;99.90
41058;DHT22;66768;48.884;2.258;2023-05-10T05:43:50;13.40;99.90
41058;DHT22;66768;48.884;2.258;2023-05-10T05:46:18;13.40;99.90
41058;DHT22;66768;48.884;2.258;2023-05-10T05:48:45;13.40;99.90
41058;DHT22;66768;48.884;2.258;2023-05-10T05:51:12;13.40;99.90
41058;DHT22;66768;48.884;2.258;2023-05-10T05:53:39;13.50;99.90
41058;DHT22;66768;48.884;2.258;2023-05-10T05:56:06;13.60;99.90
41058;DHT22;66768;48.884;2.258;2023-05-10T05:58:33;13.50;99.90
41058;DHT22;66768;48.884;2.258;2023-05-10T06:01:00;13.60;99.90
41058;DHT22;66768;48.884;2.258;2023-05-10T06:03:28;13.50;99.90
41058;DHT22;66768;48.884;2.258;2023-05-10T06:05:55;13.60;99.90
41058;DHT22;66768;48.884;2.258;2023-05-10T06:08:22;13.60;99.90
41058;DHT22;66768;48.884;2.258;2023-05-10T06:10:49;13.50;99.90
41058;DHT22;66768;48.884;2.258;2023-05-10T06:13:16;13.50;99.90
41058;DHT22;66768;48.884;2.258;2023-05-10T06:15:42;13.50;99.90
41058;DHT22;66768;48.884;2.258;2023-05-10T06:18:09;13.50;99.90
41058;DHT22;66768;48.884;2.258;2023-05-10T06:20:37;13.40;99.90
41058;DHT22;66768;48.884;2.258;2023-05-10T06:23:04;13.40;99.90
41058;DHT22;66768;48.884;2.258;2023-05-10T06:25:31;13.40;99.90
41058;DHT22;66768;48.884;2.258;2023-05-10T06:27:58;13.40;99.90
41058;DHT22;66768;48.884;2.258;2023-05-10T06:30:25;13.50;99.90
41058;DHT22;66768;48.884;2.258;2023-05-10T06:32:53;13.50;99.90
41058;DHT22;66768;48.884;2.258;2023-05-10T06:35:21;13.50;99.90
41058;DHT22;66768;48.884;2.258;2023-05-10T06:37:49;13.40;99.90
41058;DHT22;66768;48.884;2.258;2023-05-10T06:40:17;13.50;99.90
41058;DHT22;66768;48.884;2.258;2023-05-10T06:42:44;13.50;99.90
41058;DHT22;66768;48.884;2.258;2023-05-10T06:45:12;13.50;99.90
41058;DHT22;66768;48.884;2.258;2023-05-10T06:47:39;13.50;99.90
41058;DHT22;66768;48.884;2.258;2023-05-10T06:50:06;13.50;99.90
41058;DHT22;66768;48.884;2.258;2023-05-10T06:52:33;13.50;99.90
41058;DHT22;66768;48.884;2.258;2023-05-10T06:55:02;13.60;99.90
41058;DHT22;66768;48.884;2.258;2023-05-10T06:57:30;13.60;99.90
41058;DHT22;66768;48.884;2.258;2023-05-10T06:59:56;13.60;99.90
41058;DHT22;66768;48.884;2.258;2023-05-10T07:02:23;13.70;99.90
41058;DHT22;66768;48.884;2.258;2023-05-10T07:04:50;13.70;99.90
41058;DHT22;66768;48.884;2.258;2023-05-10T07:07:17;13.70;99.90
41058;DHT22;66768;48.884;2.258;2023-05-10T07:09:45;13.70;99.90
41058;DHT22;66768;48.884;2.258;2023-05-10T07:12:13;13.70;99.90
41058;DHT22;66768;48.884;2.258;2023-05-10T07:14:41;13.70;99.90
41058;DHT22;66768;48.884;2.258;2023-05-10T07:17:08;13.70;99.90
41058;DHT22;66768;48.884;2.258;2023-05-10T07:19:35;13.70;99.90
41058;DHT22;66768;48.884;2.258;2023-05-10T07:22:02;13.70;99.90
41058;DHT22;66768;48.884;2.258;2023-05-10T07:24:29;13.70;99.90
41058;DHT22;66768;48.884;2.258;2023-05-10T07:26:56;13.70;99.90
41058;DHT22;66768;48.884;2.258;2023-05-10T07:29:25;13.60;99.90
41058;DHT22;66768;48.884;2.258;2023-05-10T07:31:52;13.70;99.90
41058;DHT22;66768;48.884;2.258;2023-05-10T07:34:19;13.70;99.90
41058;DHT22;66768;48.884;2.258;2023-05-10T07:36:45;13.70;99.90
41058;DHT22;66768;48.884;2.258;2023-05-10T07:39:13;13.70;99.90
41058;DHT22;66768;48.884;2.258;2023-05-10T07:41:39;13.60;99.90
41058;DHT22;66768;48.884;2.258;2023-05-10T07:44:07;13.60;99.90
41058;DHT22;66768;48.884;2.258;2023-05-10T07:46:35;13.60;99.90
41058;DHT22;66768;48.884;2.258;2023-05-10T07:49:02;13.60;99.90
41058;DHT22;66768;48.884;2.258;2023-05-10T07:51:29;13.60;99.90
41058;DHT22;66768;48.884;2.258;2023-05-10T07:53:57;13.60;99.90
41058;DHT22;66768;48.884;2.258;2023-05-10T07:56:25;13.50;99.90
41058;DHT22;66768;48.884;2.258;2023-05-10T07:58:55;13.50;99.90
41058;DHT22;66768;48.884;2.258;2023-05-10T08:01:22;13.60;99.90
41058;DHT22;66768;48.884;2.258;2023-05-10T08:03:50;13.50;99.90
41058;DHT22;66768;48.884;2.258;2023-05-10T08:06:19;13.50;99.90
41058;DHT22;66768;48.884;2.258;2023-05-10T08:08:47;13.60;99.90
41058;DHT22;66768;48.884;2.258;2023-05-10T08:11:16;13.60;99.90
41058;DHT22;66768;48.884;2.258;2023-05-10T08:13:43;13.70;99.90
41058;DHT22;66768;48.884;2.258;2023-05-10T08:16:10;13.80;99.90
41058;DHT22;66768;48.884;2.258;2023-05-10T08:18:37;13.70;99.90
41058;DHT22;66768;48.884;2.258;2023-05-10T08:21:06;13.70;99.90
41058;DHT22;66768;48.884;2.258;2023-05-10T08:23:33;13.80;99.90
41058;DHT22;66768;48.884;2.258;2023-05-10T08:26:00;13.80;99.90
41058;DHT22;66768;48.884;2.258;2023-05-10T08:28:27;13.90;99.90
41058;DHT22;66768;48.884;2.258;2023-05-10T08:30:54;13.80;99.90
41058;DHT22;66768;48.884;2.258;2023-05-10T08:33:21;13.90;99.90
41058;DHT22;66768;48.884;2.258;2023-05-10T08:35:47;13.90;99.90
41058;DHT22;66768;48.884;2.258;2023-05-10T08:38:16;14.00;99.90
41058;DHT22;66768;48.884;2.258;2023-05-10T08:40:43;14.00;99.90
41058;DHT22;66768;48.884;2.258;2023-05-10T08:43:12;14.00;99.90
41058;DHT22;66768;48.884;2.258;2023-05-10T08:45:42;14.10;99.90
41058;DHT22;66768;48.884;2.258;2023-05-10T08:48:11;14.10;99.90
41058;DHT22;66768;48.884;2.258;2023-05-10T08:50:39;14.20;99.90
41058;DHT22;66768;48.884;2.258;2023-05-10T08:53:09;14.20;99.90
41058;DHT22;66768;48.884;2.258;2023-05-10T08:55:38;14.30;99.90
41058;DHT22;66768;48.884;2.258;2023-05-10T08:58:08;14.40;99.90
41058;DHT22;66768;48.884;2.258;2023-05-10T09:00:35;14.40;99.90
41058;DHT22;66768;48.884;2.258;2023-05-10T09:03:04;14.50;99.90
41058;DHT22;66768;48.884;2.258;2023-05-10T09:05:31;14.50;99.90
41058;DHT22;66768;48.884;2.258;2023-05-10T09:07:58;14.50;99.90
41058;DHT22;66768;48.884;2.258;2023-05-10T09:10:26;14.60;99.90
41058;DHT22;66768;48.884;2.258;2023-05-10T09:12:56;14.50;99.90
41058;DHT22;66768;48.884;2.258;2023-05-10T09:15:23;14.50;99.90
41058;DHT22;66768;48.884;2.258;2023-05-10T09:17:50;14.60;99.90
41058;DHT22;66768;48.884;2.258;2023-05-10T09:20:17;14.50;99.90
41058;DHT22;66768;48.884;2.258;2023-05-10T09:22:44;14.60;99.90
41058;DHT22;66768;48.884;2.258;2023-05-10T09:25:12;14.70;99.90
41058;DHT22;66768;48.884;2.258;2023-05-10T09:27:40;14.70;99.90
41058;DHT22;66768;48.884;2.258;2023-05-10T09:30:09;14.70;99.90
41058;DHT22;66768;48.884;2.258;2023-05-10T09:32:37;14.70;99.90
41058;DHT22;66768;48.884;2.258;2023-05-10T09:35:11;14.80;99.90
41058;DHT22;66768;48.884;2.258;2023-05-10T09:37:39;14.80;99.90
41058;DHT22;66768;48.884;2.258;2023-05-10T09:40:11;14.80;99.90
41058;DHT22;66768;48.884;2.258;2023-05-10T09:42:38;14.70;99.90
41058;DHT22;66768;48.884;2.258;2023-05-10T09:45:06;14.80;99.90
41058;DHT22;66768;48.884;2.258;2023-05-10T09:47:35;14.80;99.90
41058;DHT22;66768;48.884;2.258;2023-05-10T09:50:03;14.90;99.90
41058;DHT22;66768;48.884;2.258;2023-05-10T09:52:30;14.90;99.90
41058;DHT22;66768;48.884;2.258;2023-05-10T09:54:57;14.90;99.90
41058;DHT22;66768;48.884;2.258;2023-05-10T09:57:25;14.90;99.90
41058;DHT22;66768;48.884;2.258;2023-05-10T09:59:52;14.90;99.90
41058;DHT22;66768;48.884;2.258;2023-05-10T10:02:20;14.90;99.90
41058;DHT22;66768;48.884;2.258;2023-05-10T10:04:50;14.90;99.90
41058;DHT22;66768;48.884;2.258;2023-05-10T10:07:22;14.90;99.90
41058;DHT22;66768;48.884;2.258;2023-05-10T10:09:51;14.80;99.90
41058;DHT22;66768;48.884;2.258;2023-05-10T10:12:18;14.70;99.90
41058;DHT22;66768;48.884;2.258;2023-05-10T10:14:46;14.70;99.90
41058;DHT22;66768;48.884;2.258;2023-05-10T10:17:15;14.70;99.90
41058;DHT22;66768;48.884;2.258;2023-05-10T10:19:42;14.80;99.90
41058;DHT22;66768;48.884;2.258;2023-05-10T10:22:10;14.90;99.90
41058;DHT22;66768;48.884;2.258;2023-05-10T10:24:38;14.90;99.90
41058;DHT22;66768;48.884;2.258;2023-05-10T10:27:13;14.90;99.90
41058;DHT22;66768;48.884;2.258;2023-05-10T10:29:50;15.00;99.90
41058;DHT22;66768;48.884;2.258;2023-05-10T10:32:24;15.00;99.90
41058;DHT22;66768;48.884;2.258;2023-05-10T10:34:53;15.00;99.90
41058;DHT22;66768;48.884;2.258;2023-05-10T10:37:21;15.20;99.90
41058;DHT22;66768;48.884;2.258;2023-05-10T10:39:48;15.30;99.90
41058;DHT22;66768;48.884;2.258;2023-05-10T10:42:43;15.30;99.90
41058;DHT22;66768;48.884;2.258;2023-05-10T10:45:13;15.30;99.90
41058;DHT22;66768;48.884;2.258;2023-05-10T10:47:40;15.40;99.90
41058;DHT22;66768;48.884;2.258;2023-05-10T10:50:08;15.50;99.90
41058;DHT22;66768;48.884;2.258;2023-05-10T10:52:40;15.50;99.90
41058;DHT22;66768;48.884;2.258;2023-05-10T10:55:09;15.50;99.90
41058;DHT22;66768;48.884;2.258;2023-05-10T10:57:47;15.50;99.90
41058;DHT22;66768;48.884;2.258;2023-05-10T11:00:22;15.60;99.90
41058;DHT22;66768;48.884;2.258;2023-05-10T11:02:51;15.60;99.90
41058;DHT22;66768;48.884;2.258;2023-05-10T11:05:36;15.70;99.90
41058;DHT22;66768;48.884;2.258;2023-05-10T11:08:10;15.70;99.90
41058;DHT22;66768;48.884;2.258;2023-05-10T11:10:38;15.70;99.90
41058;DHT22;66768;48.884;2.258;2023-05-10T11:13:07;15.80;99.90
41058;DHT22;66768;48.884;2.258;2023-05-10T11:15:35;15.80;99.90
41058;DHT22;66768;48.884;2.258;2023-05-10T11:18:17;15.80;99.90
41058;DHT22;66768;48.884;2.258;2023-05-10T11:20:45;15.90;99.90
41058;DHT22;66768;48.884;2.258;2023-05-10T11:23:17;16.00;99.90
41058;DHT22;66768;48.884;2.258;2023-05-10T11:25:47;16.00;99.90
41058;DHT22;66768;48.884;2.258;2023-05-10T11:28:14;16.00;99.90
41058;DHT22;66768;48.884;2.258;2023-05-10T11:30:43;16.10;99.90
41058;DHT22;66768;48.884;2.258;2023-05-10T11:33:15;16.20;99.90
41058;DHT22;66768;48.884;2.258;2023-05-10T11:35:42;16.20;99.90
41058;DHT22;66768;48.884;2.258;2023-05-10T11:38:10;16.20;99.90
41058;DHT22;66768;48.884;2.258;2023-05-10T11:40:41;16.30;99.90
41058;DHT22;66768;48.884;2.258;2023-05-10T11:43:09;16.40;99.90
41058;DHT22;66768;48.884;2.258;2023-05-10T11:45:37;16.40;99.90
41058;DHT22;66768;48.884;2.258;2023-05-10T11:48:04;16.40;99.90
41058;DHT22;66768;48.884;2.258;2023-05-10T11:50:31;16.40;99.90
41058;DHT22;66768;48.884;2.258;2023-05-10T11:52:58;16.50;99.90
41058;DHT22;66768;48.884;2.258;2023-05-10T11:55:25;16.60;99.90
41058;DHT22;66768;48.884;2.258;2023-05-10T11:57:54;16.60;99.90
41058;DHT22;66768;48.884;2.258;2023-05-10T12:00:21;16.60;99.90
41058;DHT22;66768;48.884;2.258;2023-05-10T12:02:48;16.70;99.90
41058;DHT22;66768;48.884;2.258;2023-05-10T12:05:15;16.80;99.90
41058;DHT22;66768;48.884;2.258;2023-05-10T12:07:42;16.90;99.90
41058;DHT22;66768;48.884;2.258;2023-05-10T12:10:10;16.90;99.90
41058;DHT22;66768;48.884;2.258;2023-05-10T12:12:41;16.90;99.90
41058;DHT22;66768;48.884;2.258;2023-05-10T12:15:22;17.00;99.90
41058;DHT22;66768;48.884;2.258;2023-05-10T12:17:50;17.10;99.90
41058;DHT22;66768;48.884;2.258;2023-05-10T12:20:18;17.10;99.90
41058;DHT22;66768;48.884;2.258;2023-05-10T12:22:47;17.20;99.90
41058;DHT22;66768;48.884;2.258;2023-05-10T12:25:14;17.30;99.90
41058;DHT22;66768;48.884;2.258;2023-05-10T12:27:47;17.30;99.90
41058;DHT22;66768;48.884;2.258;2023-05-10T12:30:20;17.40;99.90
41058;DHT22;66768;48.884;2.258;2023-05-10T12:32:47;17.50;99.90
41058;DHT22;66768;48.884;2.258;2023-05-10T12:35:15;17.60;99.90
41058;DHT22;66768;48.884;2.258;2023-05-10T12:37:43;17.60;99.90
41058;DHT22;66768;48.884;2.258;2023-05-10T12:40:10;17.70;99.90
41058;DHT22;66768;48.884;2.258;2023-05-10T12:42:38;17.70;99.90
41058;DHT22;66768;48.884;2.258;2023-05-10T12:45:06;17.70;99.90
41058;DHT22;66768;48.884;2.258;2023-05-10T12:47:35;17.70;99.90
41058;DHT22;66768;48.884;2.258;2023-05-10T12:50:03;17.60;99.90
41058;DHT22;66768;48.884;2.258;2023-05-10T12:52:31;17.60;99.90
41058;DHT22;66768;48.884;2.258;2023-05-10T12:54:58;17.60;99.90
41058;DHT22;66768;48.884;2.258;2023-05-10T12:57:27;17.70;99.90
41058;DHT22;66768;48.884;2.258;2023-05-10T12:59:54;17.60;99.90
41058;DHT22;66768;48.884;2.258;2023-05-10T13:02:21;17.70;99.90
41058;DHT22;66768;48.884;2.258;2023-05-10T13:04:50;17.80;99.90
41058;DHT22;66768;48.884;2.258;2023-05-10T13:07:16;17.80;99.90
41058;DHT22;66768;48.884;2.258;2023-05-10T13:09:43;17.80;99.90
41058;DHT22;66768;48.884;2.258;2023-05-10T13:12:10;17.70;99.90
41058;DHT22;66768;48.884;2.258;2023-05-10T13:14:37;17.70;99.90
41058;DHT22;66768;48.884;2.258;2023-05-10T13:17:06;17.80;99.90
41058;DHT22;66768;48.884;2.258;2023-05-10T13:19:32;17.80;99.90
41058;DHT22;66768;48.884;2.258;2023-05-10T13:22:01;17.90;99.90
41058;DHT22;66768;48.884;2.258;2023-05-10T13:24:27;18.10;99.90
41058;DHT22;66768;48.884;2.258;2023-05-10T13:26:54;18.10;99.90
41058;DHT22;66768;48.884;2.258;2023-05-10T13:29:21;18.10;99.90
41058;DHT22;66768;48.884;2.258;2023-05-10T13:31:48;18.10;99.90
41058;DHT22;66768;48.884;2.258;2023-05-10T13:34:15;18.00;99.90
41058;DHT22;66768;48.884;2.258;2023-05-10T13:36:45;17.90;99.90
41058;DHT22;66768;48.884;2.258;2023-05-10T13:39:14;17.90;99.90
41058;DHT22;66768;48.884;2.258;2023-05-10T13:41:41;17.90;99.90
41058;DHT22;66768;48.884;2.258;2023-05-10T13:44:08;17.70;99.90
41058;DHT22;66768;48.884;2.258;2023-05-10T13:46:34;17.80;99.90
41058;DHT22;66768;48.884;2.258;2023-05-10T13:49:01;17.80;99.90
41058;DHT22;66768;48.884;2.258;2023-05-10T13:51:28;17.80;99.90
41058;DHT22;66768;48.884;2.258;2023-05-10T13:53:57;17.80;99.90
41058;DHT22;66768;48.884;2.258;2023-05-10T13:56:25;17.80;99.90
41058;DHT22;66768;48.884;2.258;2023-05-10T13:58:52;17.80;99.90
41058;DHT22;66768;48.884;2.258;2023-05-10T14:01:19;17.80;99.90
41058;DHT22;66768;48.884;2.258;2023-05-10T14:03:45;17.80;99.90
41058;DHT22;66768;48.884;2.258;2023-05-10T14:06:13;17.80;99.90
41058;DHT22;66768;48.884;2.258;2023-05-10T14:08:40;17.90;99.90
41058;DHT22;66768;48.884;2.258;2023-05-10T14:11:07;17.80;99.90
41058;DHT22;66768;48.884;2.258;2023-05-10T14:13:35;17.90;99.90
41058;DHT22;66768;48.884;2.258;2023-05-10T14:16:02;17.90;99.90
41058;DHT22;66768;48.884;2.258;2023-05-10T14:18:29;18.00;99.90
41058;DHT22;66768;48.884;2.258;2023-05-10T14:20:56;18.10;99.90
41058;DHT22;66768;48.884;2.258;2023-05-10T14:23:23;18.10;99.90
41058;DHT22;66768;48.884;2.258;2023-05-10T14:25:51;18.10;99.90
41058;DHT22;66768;48.884;2.258;2023-05-10T14:28:18;18.10;99.90
41058;DHT22;66768;48.884;2.258;2023-05-10T14:30:47;18.00;98.30
41058;DHT22;66768;48.884;2.258;2023-05-10T14:33:14;17.90;98.60
41058;DHT22;66768;48.884;2.258;2023-05-10T14:35:41;17.90;99.10
41058;DHT22;66768;48.884;2.258;2023-05-10T14:38:08;17.90;98.90
41058;DHT22;66768;48.884;2.258;2023-05-10T14:40:36;17.90;99.10
41058;DHT22;66768;48.884;2.258;2023-05-10T14:43:03;17.90;98.60
41058;DHT22;66768;48.884;2.258;2023-05-10T14:45:30;17.80;98.60
41058;DHT22;66768;48.884;2.258;2023-05-10T14:47:58;17.80;98.60
41058;DHT22;66768;48.884;2.258;2023-05-10T14:50:25;17.80;98.60
41058;DHT22;66768;48.884;2.258;2023-05-10T14:52:52;17.80;98.70
41058;DHT22;66768;48.884;2.258;2023-05-10T14:55:19;17.90;99.10
41058;DHT22;66768;48.884;2.258;2023-05-10T14:57:45;17.90;99.40
41058;DHT22;66768;48.884;2.258;2023-05-10T15:00:15;18.00;99.40
41058;DHT22;66768;48.884;2.258;2023-05-10T15:02:44;18.00;99.20
41058;DHT22;66768;48.884;2.258;2023-05-10T15:05:13;18.00;99.60
41058;DHT22;66768;48.884;2.258;2023-05-10T15:07:40;18.10;99.50
41058;DHT22;66768;48.884;2.258;2023-05-10T15:10:09;18.20;99.50
41058;DHT22;66768;48.884;2.258;2023-05-10T15:12:36;18.30;99.50
41058;DHT22;66768;48.884;2.258;2023-05-10T15:15:03;18.40;99.30
41058;DHT22;66768;48.884;2.258;2023-05-10T15:17:30;18.50;99.10
41058;DHT22;66768;48.884;2.258;2023-05-10T15:19:57;18.50;99.00
41058;DHT22;66768;48.884;2.258;2023-05-10T15:22:25;18.50;98.60
41058;DHT22;66768;48.884;2.258;2023-05-10T15:24:53;18.50;97.90
41058;DHT22;66768;48.884;2.258;2023-05-10T15:27:20;18.40;97.40
41058;DHT22;66768;48.884;2.258;2023-05-10T15:29:47;18.40;97.70
41058;DHT22;66768;48.884;2.258;2023-05-10T15:32:14;18.30;96.70
41058;DHT22;66768;48.884;2.258;2023-05-10T15:34:41;18.20;96.80
41058;DHT22;66768;48.884;2.258;2023-05-10T15:37:08;18.20;97.00
41058;DHT22;66768;48.884;2.258;2023-05-10T15:39:36;18.10;97.30
41058;DHT22;66768;48.884;2.258;2023-05-10T15:42:03;18.10;97.80
41058;DHT22;66768;48.884;2.258;2023-05-10T15:44:30;18.10;98.10
41058;DHT22;66768;48.884;2.258;2023-05-10T15:46:59;18.10;98.30